createdAt,value
2023-01-08T00:02:04.352Z,85.17
2023-01-08T00:07:07.971Z,85.28
2023-01-08T00:12:13.237Z,87.06
2023-01-08T00:17:16.839Z,86.29
2023-01-08T00:22:20.464Z,87.19
2023-01-08T00:27:26.495Z,90.53
2023-01-08T00:32:30.109Z,89.88
2023-01-08T00:37:33.774Z,91.25
2023-01-08T00:42:39.110Z,91.03
2023-01-08T00:47:42.756Z,91.94
2023-01-08T00:52:46.393Z,93.03
2023-01-08T00:57:51.696Z,94.06
2023-01-08T01:02:55.353Z,93.98
2023-01-08T01:07:59.074Z,95.40
2023-01-08T01:13:04.360Z,93.21
2023-01-08T01:18:08.010Z,92.80
2023-01-08T01:23:11.609Z,92.98
2023-01-08T01:28:17.608Z,92.03
2023-01-08T01:33:21.223Z,91.96
2023-01-08T01:38:24.855Z,91.08
2023-01-08T01:43:41.129Z,90.08
2023-01-08T01:48:45.785Z,90.33
2023-01-08T01:53:50.264Z,87.78
2023-01-08T01:58:55.985Z,87.30
2023-01-08T02:03:59.669Z,86.92
2023-01-08T02:09:09.259Z,86.32
2023-01-08T02:14:22.860Z,86.48
2023-01-08T02:19:38.837Z,85.14
2023-01-08T02:24:52.586Z,84.49
2023-01-08T02:29:58.994Z,84.83
2023-01-08T02:35:02.694Z,84.01
2023-01-08T02:40:15.604Z,84.13
2023-01-08T02:45:32.027Z,83.77
2023-01-08T02:50:41.334Z,83.51
2023-01-08T02:55:48.174Z,83.93
2023-01-08T03:00:54.610Z,83.88
2023-01-08T03:06:00.938Z,84.16
2023-01-08T03:11:05.244Z,84.40
2023-01-08T03:16:15.953Z,86.73
2023-01-08T03:21:22.345Z,86.17
2023-01-08T03:26:28.090Z,86.76
2023-01-08T03:31:35.337Z,85.83
2023-01-08T03:36:41.905Z,85.80
2023-01-08T03:41:46.861Z,85.88
2023-01-08T03:46:55.362Z,85.53
2023-01-08T03:51:58.968Z,86.25
2023-01-08T03:57:02.759Z,85.96
2023-01-08T04:02:08.184Z,86.85
2023-01-08T04:07:12.445Z,87.69
2023-01-08T04:12:16.065Z,89.40
2023-01-08T04:17:21.337Z,89.03
2023-01-08T04:22:24.947Z,89.98
2023-01-08T04:27:28.638Z,95.41
2023-01-08T04:32:33.917Z,92.11
2023-01-08T04:37:37.596Z,93.32
2023-01-08T04:42:41.221Z,95.37
2023-01-08T04:47:46.567Z,96.36
2023-01-08T04:52:50.245Z,97.88
2023-01-08T04:57:53.890Z,98.71
2023-01-08T05:02:59.241Z,98.14
2023-01-08T05:08:03.090Z,99.94
2023-01-08T05:13:06.744Z,100.00
2023-01-08T05:18:12.643Z,100.00
2023-01-08T05:23:16.727Z,100.00
2023-01-08T05:28:20.357Z,100.00
2023-01-08T05:33:25.905Z,99.10
2023-01-08T05:38:29.554Z,99.38
2023-01-08T05:43:33.378Z,98.66
2023-01-08T05:48:38.721Z,100.00
2023-01-08T05:53:42.399Z,100.00
2023-01-08T05:58:46.046Z,100.00
2023-01-08T06:03:51.515Z,100.00
2023-01-08T06:08:55.185Z,100.00
2023-01-08T06:13:58.836Z,100.00
2023-01-08T06:19:05.121Z,100.00
2023-01-08T06:24:08.072Z,100.00
2023-01-08T06:29:11.731Z,100.00
2023-01-08T06:34:17.262Z,100.00
2023-01-08T06:39:20.878Z,100.00
2023-01-08T06:44:24.511Z,100.00
2023-01-08T06:49:29.925Z,100.00
2023-01-08T06:54:33.572Z,100.00
2023-01-08T06:59:37.230Z,100.00
2023-01-08T07:04:42.672Z,100.00
2023-01-08T07:09:46.391Z,100.00
2023-01-08T07:14:50.014Z,100.00
2023-01-08T07:19:55.285Z,100.00
2023-01-08T07:24:58.906Z,100.00
2023-01-08T07:30:02.528Z,100.00
2023-01-08T07:35:08.504Z,100.00
2023-01-08T07:40:13.271Z,100.00
2023-01-08T07:45:16.898Z,100.00
2023-01-08T07:50:22.990Z,100.00
2023-01-08T07:55:27.032Z,100.00
2023-01-08T08:00:30.684Z,100.00
2023-01-08T08:05:36.539Z,100.00
2023-01-08T08:10:41.199Z,100.00
2023-01-08T08:15:44.885Z,100.00
2023-01-08T08:20:50.149Z,100.00
2023-01-08T08:25:53.823Z,100.00
2023-01-08T08:30:57.519Z,100.00
2023-01-08T08:36:02.879Z,100.00
2023-01-08T08:41:06.698Z,100.00
2023-01-08T08:46:10.405Z,100.00
2023-01-08T08:51:15.807Z,100.00
2023-01-08T08:56:19.688Z,100.00
2023-01-08T09:01:23.401Z,100.00
2023-01-08T09:06:28.692Z,100.00
2023-01-08T09:11:33.161Z,100.00
2023-01-08T09:16:36.914Z,100.00
2023-01-08T09:21:42.455Z,100.00
2023-01-08T09:26:46.106Z,100.00
2023-01-08T09:31:49.754Z,100.00
2023-01-08T09:36:55.998Z,100.00
2023-01-08T09:42:01.990Z,100.00
2023-01-08T09:47:08.074Z,100.00
2023-01-08T09:52:13.481Z,100.00
2023-01-08T09:57:20.379Z,100.00
2023-01-08T10:02:26.874Z,100.00
2023-01-08T10:07:32.509Z,100.00
2023-01-08T10:12:36.170Z,100.00
2023-01-08T10:17:41.216Z,100.00
2023-01-08T10:22:47.719Z,100.00
2023-01-08T10:27:53.439Z,100.00
2023-01-08T10:32:58.371Z,100.00
2023-01-08T10:38:03.795Z,100.00
2023-01-08T10:43:14.205Z,100.00
2023-01-08T10:48:19.181Z,100.00
2023-01-08T10:53:29.166Z,100.00
2023-01-08T10:58:42.664Z,100.00
2023-01-08T11:03:51.725Z,100.00
2023-01-08T11:08:59.309Z,100.00
2023-01-08T11:14:05.809Z,100.00
2023-01-08T11:19:20.764Z,100.00
2023-01-08T11:24:28.732Z,100.00
2023-01-08T11:29:39.512Z,100.00
2023-01-08T11:34:52.328Z,100.00
2023-01-08T11:39:58.222Z,100.00
2023-01-08T11:45:16.373Z,100.00
2023-01-08T11:50:25.980Z,100.00
2023-01-08T11:55:46.809Z,100.00
2023-01-08T12:01:00.635Z,100.00
2023-01-08T12:06:23.020Z,100.00
2023-01-08T12:11:31.714Z,100.00
2023-01-08T12:16:57.080Z,100.00
2023-01-08T12:22:17.645Z,100.00
2023-01-08T12:27:55.309Z,100.00
2023-01-08T12:32:59.229Z,99.37
2023-01-08T12:38:10.500Z,99.39
2023-01-08T12:43:19.717Z,100.00
2023-01-08T12:48:25.958Z,100.00
2023-01-08T12:53:41.044Z,100.00
2023-01-08T12:59:00.145Z,100.00
2023-01-08T13:04:05.129Z,100.00
2023-01-08T13:09:21.385Z,100.00
2023-01-08T13:14:27.637Z,100.00
2023-01-08T13:19:36.079Z,97.65
2023-01-08T13:24:40.735Z,99.10
2023-01-08T13:29:48.011Z,97.85
2023-01-08T13:35:03.125Z,97.76
2023-01-08T13:40:35.892Z,94.55
2023-01-08T13:45:41.615Z,93.98
2023-01-08T13:50:48.256Z,94.30
2023-01-08T13:55:58.045Z,94.22
2023-01-08T14:01:05.698Z,93.37
2023-01-08T14:06:16.915Z,92.47
2023-01-08T14:11:23.466Z,92.60
2023-01-08T14:16:29.120Z,92.09
2023-01-08T14:21:33.002Z,93.00
2023-01-08T14:26:37.901Z,93.13
2023-01-08T14:31:47.624Z,92.16
2023-01-08T14:36:53.329Z,93.09
2023-01-08T14:41:57.470Z,94.32
2023-01-08T14:47:02.939Z,96.02
2023-01-08T14:52:11.239Z,96.54
2023-01-08T14:57:15.128Z,97.05
2023-01-08T15:02:27.528Z,97.62
2023-01-08T15:07:31.198Z,98.13
2023-01-08T15:12:34.830Z,97.99
2023-01-08T15:17:41.696Z,97.90
2023-01-08T15:22:46.523Z,97.85
2023-01-08T15:27:56.157Z,97.47
2023-01-08T15:33:10.421Z,97.85
2023-01-08T15:38:14.373Z,97.73
2023-01-08T15:43:19.147Z,98.72
2023-01-08T15:48:24.460Z,98.00
2023-01-08T15:53:28.111Z,97.73
2023-01-08T15:58:31.896Z,98.97
2023-01-08T16:03:37.228Z,100.00
2023-01-08T16:08:40.813Z,100.00
2023-01-08T16:13:44.432Z,100.00
2023-01-08T16:18:49.719Z,100.00
2023-01-08T16:23:53.860Z,100.00
2023-01-08T16:28:57.477Z,100.00
2023-01-08T16:34:05.577Z,100.00
2023-01-08T16:39:09.310Z,100.00
2023-01-08T16:44:19.813Z,97.50
2023-01-08T16:49:25.084Z,93.83
2023-01-08T16:54:28.858Z,93.81
2023-01-08T16:59:32.489Z,94.00
2023-01-08T17:04:39.143Z,93.34
2023-01-08T17:09:43.583Z,93.83
2023-01-08T17:14:48.194Z,93.22
2023-01-08T17:19:53.494Z,95.38
2023-01-08T17:24:57.124Z,94.94
2023-01-08T17:30:00.743Z,95.60
2023-01-08T17:35:06.952Z,96.23
2023-01-08T17:40:11.960Z,96.08
2023-01-08T17:45:15.608Z,91.94
2023-01-08T17:50:21.778Z,92.93
2023-01-08T17:55:25.454Z,89.70
2023-01-08T18:00:29.120Z,87.68
2023-01-08T18:05:34.764Z,86.99
2023-01-08T18:10:38.947Z,87.18
2023-01-08T18:15:42.577Z,84.27
2023-01-08T18:20:47.891Z,84.18
2023-01-08T18:25:53.713Z,85.78
2023-01-08T18:30:57.923Z,84.55
2023-01-08T18:36:04.680Z,83.08
2023-01-08T18:41:08.766Z,83.03
2023-01-08T18:46:12.384Z,80.44
2023-01-08T18:51:17.644Z,81.57
2023-01-08T18:56:23.128Z,78.17
2023-01-08T19:01:27.190Z,78.62
2023-01-08T19:06:33.541Z,80.87
2023-01-08T19:11:37.207Z,80.61
2023-01-08T19:16:41.399Z,80.40
2023-01-08T19:21:46.714Z,79.33
2023-01-08T19:26:50.323Z,79.05
2023-01-08T19:31:54.012Z,79.60
2023-01-08T19:36:59.297Z,78.58
2023-01-08T19:42:02.938Z,77.14
2023-01-08T19:47:06.667Z,77.71
2023-01-08T19:52:11.953Z,74.55
2023-01-08T19:57:15.568Z,78.00
2023-01-08T20:02:19.318Z,76.83
2023-01-08T20:07:24.697Z,74.52
2023-01-08T20:12:28.590Z,75.11
2023-01-08T20:17:32.300Z,76.31
2023-01-08T20:22:37.598Z,73.96
2023-01-08T20:27:41.219Z,73.49
2023-01-08T20:32:44.832Z,71.06
2023-01-08T20:37:50.083Z,71.23
2023-01-08T20:42:53.705Z,70.01
2023-01-08T20:47:57.348Z,72.05
2023-01-08T20:53:02.751Z,71.90
2023-01-08T20:58:06.391Z,72.33
2023-01-08T21:03:10.057Z,72.55
2023-01-08T21:08:15.408Z,70.23
2023-01-08T21:13:19.032Z,68.53
2023-01-08T21:18:22.726Z,67.81
2023-01-08T21:23:28.075Z,68.21
2023-01-08T21:28:32.096Z,68.36
2023-01-08T21:33:35.974Z,68.69
2023-01-08T21:38:41.888Z,68.46
2023-01-08T21:43:45.533Z,71.13
2023-01-08T21:48:49.148Z,71.34
2023-01-08T21:53:54.405Z,74.38
2023-01-08T21:58:58.043Z,75.30
2023-01-08T22:04:01.680Z,75.09
2023-01-08T22:09:07.030Z,75.80
2023-01-08T22:14:10.640Z,76.94
2023-01-08T22:19:14.295Z,77.10
2023-01-08T22:24:19.596Z,77.69
2023-01-08T22:29:23.306Z,77.57
2023-01-08T22:34:27.081Z,78.93
2023-01-08T22:39:32.466Z,79.90
2023-01-08T22:44:36.211Z,79.19
2023-01-08T22:49:39.801Z,79.36
2023-01-08T22:54:46.238Z,80.70
2023-01-08T22:59:50.542Z,80.87
2023-01-08T23:04:54.295Z,80.88
2023-01-08T23:09:59.710Z,80.96
2023-01-08T23:15:03.346Z,80.12
2023-01-08T23:20:07.662Z,80.53
2023-01-08T23:25:13.417Z,81.49
2023-01-08T23:30:16.827Z,81.93
2023-01-08T23:35:20.712Z,82.27
2023-01-08T23:40:25.996Z,83.93
2023-01-08T23:45:29.656Z,85.34
2023-01-08T23:50:33.890Z,86.92
2023-01-08T23:55:39.179Z,86.75
